createdAt,value
2022-10-05T00:01:23.656Z,69953.34
2022-10-05T00:03:59.167Z,69990.28
2022-10-05T00:06:30.175Z,69953.00
2022-10-05T00:08:57.627Z,69988.19
2022-10-05T00:11:24.651Z,69992.06
2022-10-05T00:13:52.783Z,69971.47
2022-10-05T00:16:21.456Z,69972.66
2022-10-05T00:18:53.900Z,69966.53
2022-10-05T00:21:28.713Z,69972.94
2022-10-05T00:23:58.193Z,69987.31
2022-10-05T00:26:32.030Z,69996.13
2022-10-05T00:29:00.593Z,69983.81
2022-10-05T00:31:35.563Z,70016.94
2022-10-05T00:34:02.626Z,69974.41
2022-10-05T00:36:29.610Z,69975.03
2022-10-05T00:38:56.675Z,69977.09
2022-10-05T00:42:05.370Z,69963.31
2022-10-05T00:44:50.529Z,69948.34
2022-10-05T00:47:54.573Z,69999.97
2022-10-05T00:50:45.464Z,69959.25
2022-10-05T00:53:21.219Z,69996.81
2022-10-05T00:56:26.640Z,69938.13
2022-10-05T00:59:30.600Z,69932.59
2022-10-05T01:02:19.841Z,69971.88
2022-10-05T01:05:17.080Z,69920.31
2022-10-05T01:08:00.324Z,69942.31
2022-10-05T01:10:45.226Z,69945.50
2022-10-05T01:13:44.265Z,69979.25
2022-10-05T01:16:30.933Z,69949.94
2022-10-05T01:19:11.914Z,69944.66
2022-10-05T01:22:07.588Z,69944.94
2022-10-05T01:24:56.276Z,69988.03
2022-10-05T01:27:39.058Z,69955.81
2022-10-05T01:30:15.785Z,69923.06
2022-10-05T01:33:36.961Z,69933.84
2022-10-05T01:36:18.690Z,69950.00
2022-10-05T01:39:14.737Z,69913.69
2022-10-05T01:42:03.620Z,69933.91
2022-10-05T01:44:57.345Z,69937.16
2022-10-05T01:47:46.403Z,69887.34
2022-10-05T01:50:40.978Z,69880.06
2022-10-05T01:53:42.826Z,69899.09
2022-10-05T01:56:31.027Z,69945.66
2022-10-05T01:59:16.767Z,69923.13
2022-10-05T02:02:07.692Z,69925.47
2022-10-05T02:05:03.470Z,69907.03
2022-10-05T02:07:48.154Z,69960.34
2022-10-05T02:10:31.226Z,69900.59
2022-10-05T02:13:12.955Z,69894.47
2022-10-05T02:15:51.733Z,69923.16
2022-10-05T02:18:27.710Z,69904.41
2022-10-05T02:20:58.316Z,69902.03
2022-10-05T02:23:33.793Z,69941.00
2022-10-05T02:26:01.816Z,69962.97
2022-10-05T02:28:55.717Z,69886.78
2022-10-05T02:31:50.351Z,69894.72
2022-10-05T02:34:36.326Z,69900.88
2022-10-05T02:37:25.378Z,69906.19
2022-10-05T02:40:28.401Z,69897.41
2022-10-05T02:43:14.606Z,69919.66
2022-10-05T02:46:17.453Z,69901.81
2022-10-05T02:49:23.008Z,69904.16
2022-10-05T02:52:23.306Z,69891.00
2022-10-05T02:55:05.565Z,69867.59
2022-10-05T02:57:39.615Z,69892.81
2022-10-05T03:00:07.072Z,69857.66
2022-10-05T03:02:54.595Z,69858.84
2022-10-05T03:05:54.902Z,69848.03
2022-10-05T03:08:47.605Z,69880.50
2022-10-05T03:11:41.063Z,69866.47
2022-10-05T03:14:35.265Z,69878.19
2022-10-05T03:17:29.310Z,69868.53
2022-10-05T03:20:33.910Z,69878.47
2022-10-05T03:23:04.106Z,69878.19
2022-10-05T03:25:56.112Z,69852.72
2022-10-05T03:28:53.902Z,69864.72
2022-10-05T03:31:45.012Z,69879.06
2022-10-05T03:34:26.078Z,69883.44
2022-10-05T03:37:04.406Z,69884.63
2022-10-05T03:40:05.891Z,69888.75
2022-10-05T03:43:02.054Z,69882.84
2022-10-05T03:45:47.221Z,69867.31
2022-10-05T03:48:49.230Z,69907.44
2022-10-05T03:51:34.984Z,69885.78
2022-10-05T03:54:37.019Z,69865.94
2022-10-05T03:57:29.051Z,69890.75
2022-10-05T04:00:06.937Z,69885.84
2022-10-05T04:03:00.634Z,69872.66
2022-10-05T04:05:35.851Z,69871.19
2022-10-05T04:08:26.749Z,69864.16
2022-10-05T04:11:00.247Z,69854.81
2022-10-05T04:13:36.718Z,69875.28
2022-10-05T04:16:23.040Z,69847.22
2022-10-05T04:19:04.770Z,69834.97
2022-10-05T04:22:09.402Z,69882.38
2022-10-05T04:24:58.454Z,69828.53
2022-10-05T04:27:39.207Z,69862.50
2022-10-05T04:30:14.633Z,69849.63
2022-10-05T04:32:57.522Z,69861.34
2022-10-05T04:36:05.399Z,69811.66
2022-10-05T04:38:52.454Z,69766.91
2022-10-05T04:41:42.175Z,69812.59
2022-10-05T04:44:44.063Z,69817.91
2022-10-05T04:47:33.685Z,69775.78
2022-10-05T04:50:21.289Z,69755.38
2022-10-05T04:53:33.653Z,69742.78
2022-10-05T04:56:20.414Z,69782.59
2022-10-05T04:59:23.278Z,69751.59
2022-10-05T05:02:06.637Z,69766.78
2022-10-05T05:04:56.722Z,69796.06
2022-10-05T05:07:45.892Z,69765.66
2022-10-05T05:10:21.909Z,69810.69
2022-10-05T05:12:58.823Z,69772.38
2022-10-05T05:16:18.932Z,69735.53
2022-10-05T05:19:08.593Z,69774.41
2022-10-05T05:22:01.249Z,69758.66
2022-10-05T05:24:37.806Z,69761.88
2022-10-05T05:27:17.855Z,69766.81
2022-10-05T05:30:15.624Z,69767.72
2022-10-05T05:33:27.823Z,69760.41
2022-10-05T05:35:58.844Z,69759.84
2022-10-05T05:38:45.232Z,69757.47
2022-10-05T05:41:35.841Z,69734.97
2022-10-05T05:44:25.078Z,69768.00
2022-10-05T05:47:17.307Z,69745.78
2022-10-05T05:50:25.556Z,69742.88
2022-10-05T05:53:11.877Z,69749.84
2022-10-05T05:56:08.929Z,69782.28
2022-10-05T05:58:56.950Z,69763.31
2022-10-05T06:01:33.547Z,69774.97
2022-10-05T06:04:17.166Z,69819.41
2022-10-05T06:06:51.971Z,69774.94
2022-10-05T06:09:37.970Z,69778.44
2022-10-05T06:12:28.978Z,69787.22
2022-10-05T06:15:15.829Z,69810.28
2022-10-05T06:17:52.729Z,69814.06
2022-10-05T06:20:33.688Z,69790.66
2022-10-05T06:23:07.087Z,69839.44
2022-10-05T06:26:15.189Z,69855.78
2022-10-05T06:28:51.679Z,69820.94
2022-10-05T06:31:29.548Z,69887.03
2022-10-05T06:34:20.082Z,69868.25
2022-10-05T06:37:00.022Z,69866.16
2022-10-05T06:39:49.420Z,69913.25
2022-10-05T06:43:05.558Z,69867.53
2022-10-05T06:45:40.614Z,69891.53
2022-10-05T06:49:06.783Z,69921.97
2022-10-05T06:52:19.441Z,69920.75
2022-10-05T06:55:17.945Z,69969.06
2022-10-05T06:57:57.240Z,69941.78
2022-10-05T07:00:38.605Z,69984.28
2022-10-05T07:03:22.960Z,69956.00
2022-10-05T07:06:08.604Z,69987.94
2022-10-05T07:09:07.346Z,70003.72
2022-10-05T07:11:57.534Z,69977.28
2022-10-05T07:15:01.340Z,70018.00
2022-10-05T07:17:49.616Z,70043.19
2022-10-05T07:20:30.237Z,70051.31
2022-10-05T07:23:25.621Z,70070.09
2022-10-05T07:26:17.854Z,70091.97
2022-10-05T07:29:19.261Z,70126.25
2022-10-05T07:32:14.741Z,70130.63
2022-10-05T07:35:34.340Z,70174.25
2022-10-05T07:38:23.233Z,70145.69
2022-10-05T07:41:04.064Z,70169.41
2022-10-05T07:44:01.948Z,70164.63
2022-10-05T07:47:04.938Z,70202.47
2022-10-05T07:50:02.410Z,70234.41
2022-10-05T07:52:39.859Z,70211.72
2022-10-05T07:55:25.481Z,70225.38
2022-10-05T07:58:15.127Z,70305.88
2022-10-05T08:01:19.228Z,70335.19
2022-10-05T08:04:41.744Z,70369.53
2022-10-05T08:07:17.331Z,70395.28
2022-10-05T08:10:35.057Z,70413.34
2022-10-05T08:13:23.653Z,70422.91
2022-10-05T08:15:57.953Z,70449.06
2022-10-05T08:18:54.711Z,70483.16
2022-10-05T08:21:38.986Z,70496.06
2022-10-05T08:24:37.031Z,70537.53
2022-10-05T08:27:23.574Z,70547.78
2022-10-05T08:30:02.702Z,70537.09
2022-10-05T08:32:41.485Z,70588.91
2022-10-05T08:35:44.013Z,70612.41
2022-10-05T08:38:20.180Z,70668.38
2022-10-05T08:41:11.144Z,70660.53
2022-10-05T08:44:00.124Z,70707.66
2022-10-05T08:46:48.745Z,70716.69
2022-10-05T08:49:24.819Z,70738.78
2022-10-05T08:52:00.770Z,70747.84
2022-10-05T08:54:50.535Z,70764.25
2022-10-05T08:57:32.958Z,70795.75
2022-10-05T09:00:31.334Z,70826.09
2022-10-05T09:03:24.081Z,70809.81
2022-10-05T09:06:24.019Z,70875.50
2022-10-05T09:09:37.270Z,70878.91
2022-10-05T09:12:41.159Z,70918.75
2022-10-05T09:15:29.967Z,71056.00
2022-10-05T09:18:27.487Z,71211.59
2022-10-05T09:21:14.819Z,71359.00
2022-10-05T09:23:49.062Z,71451.91
2022-10-05T09:26:41.067Z,71561.28
2022-10-05T09:29:48.437Z,71622.34
2022-10-05T09:32:36.798Z,71765.16
2022-10-05T09:35:43.136Z,71855.50
2022-10-05T09:38:39.796Z,71916.03
2022-10-05T09:41:45.089Z,72050.16
2022-10-05T09:44:30.880Z,72069.59
2022-10-05T09:47:30.990Z,72121.78
2022-10-05T09:50:25.752Z,72120.53
2022-10-05T09:53:47.852Z,72100.44
2022-10-05T09:56:45.653Z,72052.38
2022-10-05T09:59:51.856Z,72036.78
2022-10-05T10:02:49.836Z,72147.06
2022-10-05T10:05:34.632Z,72159.63
2022-10-05T10:08:38.802Z,72142.63
2022-10-05T10:11:23.921Z,72162.28
2022-10-05T10:14:24.982Z,72167.81
2022-10-05T10:17:16.599Z,72080.19
2022-10-05T10:19:59.827Z,72147.88
2022-10-05T10:22:51.884Z,72280.38
2022-10-05T10:25:46.358Z,72349.88
2022-10-05T10:28:43.450Z,72315.94
2022-10-05T10:31:58.734Z,72026.44
2022-10-05T10:35:04.340Z,71949.75
2022-10-05T10:38:00.852Z,71833.00
2022-10-05T10:40:55.694Z,71752.47
2022-10-05T10:43:29.494Z,71802.09
2022-10-05T10:46:18.244Z,72021.25
2022-10-05T10:49:31.126Z,72117.25
2022-10-05T10:52:03.452Z,72261.44
2022-10-05T10:55:23.193Z,72347.81
2022-10-05T10:58:11.236Z,72399.56
2022-10-05T11:01:09.745Z,72515.41
2022-10-05T11:04:15.939Z,72565.22
2022-10-05T11:07:21.027Z,72759.00
2022-10-05T11:09:57.345Z,72901.19
2022-10-05T11:12:48.688Z,72984.22
2022-10-05T11:15:24.880Z,72866.94
2022-10-05T11:18:11.408Z,72769.72
2022-10-05T11:21:10.156Z,72845.16
2022-10-05T11:24:25.309Z,72857.91
2022-10-05T11:27:40.687Z,73024.00
2022-10-05T11:30:32.691Z,73122.81
2022-10-05T11:33:11.904Z,73199.03
2022-10-05T11:36:19.468Z,73314.94
2022-10-05T11:39:07.493Z,73284.06
2022-10-05T11:42:06.231Z,73178.91
2022-10-05T11:45:39.939Z,72893.41
2022-10-05T11:48:40.965Z,72759.84
2022-10-05T11:51:29.155Z,72529.66
2022-10-05T11:55:09.177Z,72262.03
2022-10-05T11:57:56.318Z,72013.88
2022-10-05T12:00:40.557Z,71936.22
2022-10-05T12:03:21.809Z,71852.59
2022-10-05T12:06:11.034Z,71812.78
2022-10-05T12:08:46.818Z,71753.13
2022-10-05T12:11:58.420Z,71809.28
2022-10-05T12:14:44.410Z,71793.91
2022-10-05T12:17:30.209Z,71830.28
2022-10-05T12:20:06.903Z,71787.50
2022-10-05T12:23:07.484Z,71863.34
2022-10-05T12:25:44.554Z,71817.38
2022-10-05T12:28:20.429Z,71808.84
2022-10-05T12:31:17.780Z,71771.13
2022-10-05T12:34:14.976Z,71742.69
2022-10-05T12:37:05.220Z,71678.13
2022-10-05T12:39:56.948Z,71640.28
2022-10-05T12:42:54.989Z,71627.13
2022-10-05T12:45:49.788Z,71602.28
2022-10-05T12:48:56.291Z,71616.66
2022-10-05T12:51:26.745Z,71623.22
2022-10-05T12:54:20.277Z,71597.41
2022-10-05T12:57:06.638Z,71533.34
2022-10-05T12:59:41.897Z,71556.03
2022-10-05T13:02:31.877Z,71544.78
2022-10-05T13:05:30.924Z,71566.34
2022-10-05T13:08:18.022Z,71531.75
2022-10-05T13:11:12.679Z,71559.09
2022-10-05T13:13:57.642Z,71565.06
2022-10-05T13:16:39.290Z,71568.06
2022-10-05T13:19:21.538Z,71539.72
2022-10-05T13:22:01.822Z,71550.13
2022-10-05T13:24:35.378Z,71523.97
2022-10-05T13:27:35.504Z,71536.81
2022-10-05T13:30:16.161Z,71542.50
2022-10-05T13:32:48.175Z,71509.41
2022-10-05T13:35:48.518Z,71500.28
2022-10-05T13:38:36.341Z,71555.03
2022-10-05T13:41:44.032Z,71529.00
2022-10-05T13:44:36.560Z,71563.34
2022-10-05T13:47:29.758Z,71549.31
2022-10-05T13:50:17.796Z,71539.34
2022-10-05T13:53:26.887Z,71577.53
2022-10-05T13:56:21.984Z,71587.88
2022-10-05T13:59:49.388Z,71552.31
2022-10-05T14:02:35.541Z,71614.09
2022-10-05T14:05:27.621Z,71629.31
2022-10-05T14:08:02.350Z,71600.03
2022-10-05T14:10:43.178Z,71598.50
2022-10-05T14:13:21.671Z,71618.81
2022-10-05T14:16:21.600Z,71595.22
2022-10-05T14:18:57.710Z,71590.13
2022-10-05T14:21:53.569Z,71603.78
2022-10-05T14:24:44.766Z,71594.66
2022-10-05T14:27:23.857Z,71618.41
2022-10-05T14:30:00.424Z,71639.03
2022-10-05T14:32:43.232Z,71606.22
2022-10-05T14:35:25.356Z,71614.53
2022-10-05T14:38:22.137Z,71573.69
2022-10-05T14:41:17.249Z,71563.25
2022-10-05T14:44:10.986Z,71616.34
2022-10-05T14:46:39.470Z,71567.78
2022-10-05T14:49:19.272Z,71587.22
2022-10-05T14:51:46.362Z,71603.06
2022-10-05T14:54:46.786Z,71526.72
2022-10-05T14:57:29.225Z,71526.81
2022-10-05T15:00:11.551Z,71510.16
2022-10-05T15:03:18.044Z,71551.38
2022-10-05T15:05:50.388Z,71518.66
2022-10-05T15:08:35.991Z,71541.91
2022-10-05T15:11:21.849Z,71493.56
2022-10-05T15:13:49.876Z,71425.50
2022-10-05T15:16:31.017Z,71410.22
2022-10-05T15:19:17.899Z,71402.56
2022-10-05T15:22:41.251Z,71372.94
2022-10-05T15:25:26.789Z,71345.75
2022-10-05T15:28:33.439Z,71325.03
2022-10-05T15:31:24.185Z,71265.00
2022-10-05T15:34:20.070Z,71274.91
2022-10-05T15:37:22.755Z,71242.97
2022-10-05T15:40:04.758Z,71217.22
2022-10-05T15:42:45.016Z,71186.66
2022-10-05T15:46:03.051Z,71175.75
2022-10-05T15:48:52.347Z,71147.94
2022-10-05T15:51:40.742Z,71163.72
2022-10-05T15:54:49.745Z,71207.19
2022-10-05T15:57:39.068Z,71143.66
2022-10-05T16:00:25.265Z,71147.34
2022-10-05T16:03:25.481Z,71126.31
2022-10-05T16:06:24.785Z,71146.56
2022-10-05T16:09:32.498Z,71099.13
2022-10-05T16:12:09.688Z,71116.13
2022-10-05T16:15:01.264Z,71041.38
2022-10-05T16:17:55.832Z,71060.50
2022-10-05T16:21:00.005Z,71046.06
2022-10-05T16:23:57.967Z,71034.19
2022-10-05T16:27:03.899Z,71020.03
2022-10-05T16:29:45.897Z,71036.44
2022-10-05T16:32:22.026Z,70985.44
2022-10-05T16:35:20.972Z,70974.81
2022-10-05T16:38:06.084Z,70991.22
2022-10-05T16:40:59.713Z,70999.56
2022-10-05T16:44:19.159Z,70973.81
2022-10-05T16:47:08.579Z,70965.28
2022-10-05T16:50:19.981Z,70929.16
2022-10-05T16:52:57.657Z,70904.97
2022-10-05T16:55:39.499Z,70958.38
2022-10-05T16:58:32.989Z,70934.13
2022-10-05T17:01:42.377Z,70896.81
2022-10-05T17:04:43.294Z,70889.72
2022-10-05T17:07:53.037Z,70907.88
2022-10-05T17:11:03.848Z,70864.91
2022-10-05T17:14:07.403Z,70907.41
2022-10-05T17:17:02.585Z,70809.50
2022-10-05T17:19:41.504Z,70790.72
2022-10-05T17:22:39.662Z,70822.81
2022-10-05T17:25:22.321Z,70815.09
2022-10-05T17:27:56.806Z,70730.41
2022-10-05T17:30:53.892Z,70782.66
2022-10-05T17:33:24.722Z,70813.19
2022-10-05T17:36:01.769Z,70778.00
2022-10-05T17:38:33.397Z,70767.38
2022-10-05T17:41:00.344Z,70753.84
2022-10-05T17:43:32.888Z,70757.69
2022-10-05T17:46:03.482Z,70731.66
2022-10-05T17:48:44.089Z,70721.66
2022-10-05T17:51:46.209Z,70733.22
2022-10-05T17:55:10.801Z,70723.25
2022-10-05T17:57:39.640Z,70691.94
2022-10-05T18:00:31.570Z,70694.06
2022-10-05T18:02:58.710Z,70725.09
2022-10-05T18:05:30.442Z,70717.09
2022-10-05T18:08:16.563Z,70711.78
2022-10-05T18:11:09.851Z,70738.72
2022-10-05T18:13:49.931Z,70665.97
2022-10-05T18:16:58.086Z,70711.53
2022-10-05T18:19:25.945Z,70705.94
2022-10-05T18:22:16.764Z,70698.59
2022-10-05T18:24:56.175Z,70643.59
2022-10-05T18:27:49.596Z,70670.81
2022-10-05T18:30:23.939Z,70683.84
2022-10-05T18:33:21.134Z,70678.47
2022-10-05T18:36:37.679Z,70690.81
2022-10-05T18:39:28.817Z,70702.06
2022-10-05T18:41:55.827Z,70703.25
2022-10-05T18:44:40.346Z,70704.75
2022-10-05T18:47:39.379Z,70691.16
2022-10-05T18:50:52.139Z,70679.66
2022-10-05T18:54:11.682Z,70671.41
2022-10-05T18:56:50.814Z,70664.38
2022-10-05T18:59:37.913Z,70645.22
2022-10-05T19:02:26.178Z,70650.84
2022-10-05T19:05:48.745Z,70634.34
2022-10-05T19:08:25.871Z,70621.94
2022-10-05T19:11:01.840Z,70638.84
2022-10-05T19:14:07.441Z,70597.91
2022-10-05T19:16:55.492Z,70628.50
2022-10-05T19:19:48.607Z,70638.31
2022-10-05T19:22:19.092Z,70633.63
2022-10-05T19:25:14.404Z,70624.78
2022-10-05T19:28:07.650Z,70570.88
2022-10-05T19:30:58.858Z,70615.69
2022-10-05T19:33:26.493Z,70590.59
2022-10-05T19:36:39.579Z,70599.34
2022-10-05T19:39:26.770Z,70594.91
2022-10-05T19:42:53.021Z,70596.53
2022-10-05T19:45:27.992Z,70564.16
2022-10-05T19:48:11.012Z,70579.00
2022-10-05T19:50:40.355Z,70582.22
2022-10-05T19:53:30.683Z,70561.84
2022-10-05T19:56:17.389Z,70579.56
2022-10-05T19:58:44.948Z,70555.94
2022-10-05T20:01:26.240Z,70572.28
2022-10-05T20:03:54.154Z,70564.78
2022-10-05T20:06:26.718Z,70592.25
2022-10-05T20:09:00.011Z,70589.03
2022-10-05T20:11:29.061Z,70582.22
2022-10-05T20:14:01.900Z,70580.44
2022-10-05T20:17:10.564Z,70602.25
2022-10-05T20:19:57.516Z,70565.66
2022-10-05T20:22:36.469Z,70606.41
2022-10-05T20:25:08.311Z,70576.81
2022-10-05T20:27:48.753Z,70599.63
2022-10-05T20:30:21.607Z,70582.53
2022-10-05T20:32:51.398Z,70567.22
2022-10-05T20:35:22.170Z,70557.50
2022-10-05T20:37:52.169Z,70542.72
2022-10-05T20:40:20.278Z,70565.78
2022-10-05T20:42:48.048Z,70564.03
2022-10-05T20:45:15.074Z,70525.69
2022-10-05T20:47:42.238Z,70535.13
2022-10-05T20:50:10.692Z,70512.22
2022-10-05T20:52:39.587Z,70524.66
2022-10-05T20:55:09.388Z,70485.75
2022-10-05T20:57:42.183Z,70497.31
2022-10-05T21:00:12.288Z,70507.63
2022-10-05T21:02:39.742Z,70480.78
2022-10-05T21:05:07.684Z,70502.25
2022-10-05T21:07:35.087Z,70481.94
2022-10-05T21:10:03.723Z,70459.31
2022-10-05T21:12:32.675Z,70446.38
2022-10-05T21:15:00.301Z,70500.06
2022-10-05T21:17:27.496Z,70475.91
2022-10-05T21:19:54.563Z,70476.53
2022-10-05T21:22:22.321Z,70451.78
2022-10-05T21:24:49.224Z,70454.13
2022-10-05T21:27:16.762Z,70463.50
2022-10-05T21:29:44.456Z,70472.31
2022-10-05T21:32:11.850Z,70457.66
2022-10-05T21:34:39.908Z,70459.41
2022-10-05T21:37:08.462Z,70480.06
2022-10-05T21:39:36.527Z,70461.16
2022-10-05T21:42:04.080Z,70463.50
2022-10-05T21:44:31.314Z,70454.31
2022-10-05T21:46:58.540Z,70466.38
2022-10-05T21:49:27.112Z,70446.03
2022-10-05T21:51:54.743Z,70474.63
2022-10-05T21:54:23.828Z,70499.41
2022-10-05T21:56:55.536Z,70487.00
2022-10-05T21:59:29.412Z,70490.47
2022-10-05T22:01:56.441Z,70484.63
2022-10-05T22:04:23.771Z,70459.81
2022-10-05T22:06:51.234Z,70528.84
2022-10-05T22:09:18.189Z,70492.25
2022-10-05T22:11:49.301Z,70498.41
2022-10-05T22:14:16.777Z,70535.22
2022-10-05T22:16:44.433Z,70483.91
2022-10-05T22:19:18.605Z,70511.69
2022-10-05T22:21:45.793Z,70544.13
2022-10-05T22:24:12.783Z,70519.91
2022-10-05T22:26:43.593Z,70510.53
2022-10-05T22:29:10.717Z,70502.00
2022-10-05T22:31:39.187Z,70483.44
2022-10-05T22:34:06.323Z,70459.72
2022-10-05T22:36:37.270Z,70485.88
2022-10-05T22:39:04.538Z,70513.00
2022-10-05T22:41:31.556Z,70492.91
2022-10-05T22:43:59.055Z,70506.00
2022-10-05T22:46:26.193Z,70536.34
2022-10-05T22:48:53.177Z,70536.00
2022-10-05T22:51:20.170Z,70554.28
2022-10-05T22:53:47.250Z,70573.94
2022-10-05T22:56:14.783Z,70590.34
2022-10-05T22:58:44.172Z,70578.63
2022-10-05T23:01:16.187Z,70642.81
2022-10-05T23:03:44.138Z,70606.84
2022-10-05T23:06:18.584Z,70626.03
2022-10-05T23:08:46.721Z,70582.59
2022-10-05T23:11:18.366Z,70594.50
2022-10-05T23:13:45.684Z,70556.72
2022-10-05T23:16:19.678Z,70572.69
2022-10-05T23:18:52.498Z,70648.81
2022-10-05T23:21:22.479Z,70651.66
2022-10-05T23:23:53.606Z,70631.19
2022-10-05T23:26:24.351Z,70606.38
2022-10-05T23:28:52.056Z,70646.91
2022-10-05T23:31:23.049Z,70597.03
2022-10-05T23:33:50.139Z,70569.19
2022-10-05T23:36:24.601Z,70557.38
2022-10-05T23:38:52.213Z,70537.06
2022-10-05T23:41:20.074Z,70611.94
2022-10-05T23:43:47.761Z,70574.72
2022-10-05T23:46:16.011Z,70722.16
2022-10-05T23:48:43.154Z,70807.66
2022-10-05T23:51:14.212Z,70798.47
2022-10-05T23:53:41.285Z,70795.56
2022-10-05T23:56:08.315Z,70814.06
2022-10-05T23:58:35.367Z,70801.69
